createdAt,value
2019-05-07T00:00:53.059Z,5.15
2019-05-07T00:03:22.067Z,5.11
2019-05-07T00:05:53.699Z,5.05
2019-05-07T00:08:22.796Z,5.01
2019-05-07T00:10:52.895Z,4.95
2019-05-07T00:13:22.713Z,4.94
2019-05-07T00:15:52.793Z,4.92
2019-05-07T00:18:22.972Z,4.90
2019-05-07T00:20:52.961Z,4.87
2019-05-07T00:23:23.151Z,4.84
2019-05-07T00:25:52.910Z,4.83
2019-05-07T00:28:23.028Z,4.79
2019-05-07T00:30:52.169Z,4.76
2019-05-07T00:33:22.571Z,4.73
2019-05-07T00:36:04.299Z,4.74
2019-05-07T00:38:34.371Z,4.72
2019-05-07T00:41:04.389Z,4.67
2019-05-07T00:43:33.780Z,4.63
2019-05-07T00:46:03.822Z,4.59
2019-05-07T00:48:32.997Z,4.58
2019-05-07T00:51:18.937Z,4.53
2019-05-07T00:53:47.327Z,4.48
2019-05-07T00:56:15.760Z,4.49
2019-05-07T00:58:44.174Z,4.49
2019-05-07T01:01:13.141Z,4.51
2019-05-07T01:03:42.463Z,4.46
2019-05-07T01:06:12.886Z,4.42
2019-05-07T01:08:43.040Z,4.38
2019-05-07T01:11:13.148Z,4.34
2019-05-07T01:13:43.134Z,4.30
2019-05-07T01:16:12.908Z,4.30
2019-05-07T01:18:42.103Z,4.28
2019-05-07T01:21:13.077Z,4.27
2019-05-07T01:23:42.790Z,4.26
2019-05-07T01:26:12.452Z,4.26
2019-05-07T01:28:59.071Z,4.25
2019-05-07T01:31:32.865Z,4.28
2019-05-07T01:34:02.974Z,4.29
2019-05-07T01:36:31.950Z,4.29
2019-05-07T01:39:02.548Z,4.31
2019-05-07T01:41:32.603Z,4.34
2019-05-07T01:44:02.073Z,4.35
2019-05-07T01:46:32.491Z,4.35
2019-05-07T01:49:02.902Z,4.33
2019-05-07T01:51:32.692Z,4.32
2019-05-07T01:54:02.200Z,4.33
2019-05-07T01:56:32.996Z,4.34
2019-05-07T01:59:02.402Z,4.31
2019-05-07T02:01:33.135Z,4.22
2019-05-07T02:04:12.746Z,4.13
2019-05-07T02:06:58.992Z,4.09
2019-05-07T02:09:33.906Z,4.11
2019-05-07T02:12:03.610Z,4.07
2019-05-07T02:14:32.987Z,4.06
2019-05-07T02:17:02.956Z,4.07
2019-05-07T02:19:32.963Z,4.04
2019-05-07T02:22:02.844Z,4.01
2019-05-07T02:24:33.688Z,3.94
2019-05-07T02:27:03.006Z,3.92
2019-05-07T02:29:32.439Z,3.86
2019-05-07T02:32:04.278Z,3.81
2019-05-07T02:34:33.892Z,3.77
2019-05-07T02:37:03.996Z,3.76
2019-05-07T02:39:33.515Z,3.76
2019-05-07T02:42:03.691Z,3.72
2019-05-07T02:44:33.887Z,3.70
2019-05-07T02:47:23.524Z,3.68
2019-05-07T02:49:53.585Z,3.65
2019-05-07T02:52:43.394Z,3.64
2019-05-07T02:55:13.456Z,3.63
2019-05-07T02:57:43.487Z,3.61
2019-05-07T03:00:14.587Z,3.18
2019-05-07T03:02:43.699Z,3.49
2019-05-07T03:05:13.626Z,3.48
2019-05-07T03:07:42.885Z,3.48
2019-05-07T03:10:13.825Z,3.44
2019-05-07T03:12:43.071Z,3.41
2019-05-07T03:15:13.193Z,3.37
2019-05-07T03:17:42.954Z,3.31
2019-05-07T03:20:13.974Z,3.30
2019-05-07T03:22:42.994Z,3.30
2019-05-07T03:25:16.634Z,3.28
2019-05-07T03:27:45.092Z,3.24
2019-05-07T03:30:17.023Z,3.22
2019-05-07T03:32:49.827Z,3.18
2019-05-07T03:35:19.933Z,3.17
2019-05-07T03:37:48.438Z,3.16
2019-05-07T03:40:17.012Z,3.15
2019-05-07T03:42:45.479Z,3.10
2019-05-07T03:45:18.632Z,3.03
2019-05-07T03:47:48.708Z,3.02
2019-05-07T03:50:17.208Z,3.03
2019-05-07T03:52:45.605Z,3.02
2019-05-07T03:55:14.795Z,3.00
2019-05-07T03:57:43.971Z,2.94
2019-05-07T04:00:13.564Z,2.91
2019-05-07T04:02:43.834Z,2.90
2019-05-07T04:05:13.952Z,2.92
2019-05-07T04:07:43.244Z,2.89
2019-05-07T04:10:14.648Z,2.90
2019-05-07T04:12:44.122Z,2.96
2019-05-07T04:15:14.568Z,2.98
2019-05-07T04:17:46.575Z,3.00
2019-05-07T04:20:15.431Z,3.05
2019-05-07T04:22:43.930Z,3.07
2019-05-07T04:25:16.801Z,3.10
2019-05-07T04:27:55.599Z,3.14
2019-05-07T04:30:24.159Z,3.19
2019-05-07T04:32:54.244Z,3.25
2019-05-07T04:35:35.126Z,3.29
2019-05-07T04:38:06.967Z,3.34
2019-05-07T04:40:34.070Z,3.38
2019-05-07T04:43:02.948Z,3.41
2019-05-07T04:45:33.735Z,3.42
2019-05-07T04:48:03.127Z,3.43
2019-05-07T04:50:42.576Z,3.43
2019-05-07T04:53:03.478Z,3.47
2019-05-07T04:55:33.406Z,3.58
2019-05-07T04:58:04.545Z,3.70
2019-05-07T05:00:33.627Z,3.79
2019-05-07T05:03:12.665Z,3.91
2019-05-07T05:05:39.865Z,3.97
2019-05-07T05:08:08.249Z,4.03
2019-05-07T05:10:36.649Z,4.08
2019-05-07T05:13:05.110Z,4.12
2019-05-07T05:15:33.502Z,4.17
2019-05-07T05:18:02.673Z,4.26
2019-05-07T05:20:33.651Z,4.34
2019-05-07T05:23:03.799Z,4.43
2019-05-07T05:25:43.095Z,4.51
2019-05-07T05:28:12.489Z,4.64
2019-05-07T05:30:42.688Z,4.77
2019-05-07T05:33:12.534Z,4.93
2019-05-07T05:35:43.082Z,5.07
2019-05-07T05:38:12.628Z,5.21
2019-05-07T05:40:42.727Z,5.37
2019-05-07T05:43:22.490Z,5.52
2019-05-07T05:45:53.091Z,5.66
2019-05-07T05:48:22.406Z,5.79
2019-05-07T05:51:07.460Z,5.90
2019-05-07T05:53:37.493Z,6.01
2019-05-07T05:56:07.544Z,6.17
2019-05-07T05:58:40.246Z,6.34
2019-05-07T06:01:10.276Z,6.47
2019-05-07T06:03:43.285Z,6.58
2019-05-07T06:06:16.477Z,6.71
2019-05-07T06:08:56.094Z,6.82
2019-05-07T06:11:26.128Z,6.88
2019-05-07T06:14:08.144Z,7.02
2019-05-07T06:16:42.047Z,7.13
2019-05-07T06:19:15.051Z,7.22
2019-05-07T06:21:52.627Z,7.30
2019-05-07T06:24:22.805Z,7.44
2019-05-07T06:26:52.211Z,7.59
2019-05-07T06:29:22.977Z,7.76
2019-05-07T06:31:52.899Z,7.75
2019-05-07T06:34:21.976Z,7.95
2019-05-07T06:36:52.606Z,8.18
2019-05-07T06:39:22.294Z,8.28
2019-05-07T06:42:08.770Z,8.30
2019-05-07T06:44:37.160Z,8.33
2019-05-07T06:47:05.628Z,8.14
2019-05-07T06:49:34.026Z,8.09
2019-05-07T06:52:02.974Z,8.14
2019-05-07T06:54:32.123Z,8.18
2019-05-07T06:57:02.028Z,8.24
2019-05-07T06:59:34.595Z,8.28
2019-05-07T07:02:05.712Z,8.34
2019-05-07T07:04:36.087Z,8.32
2019-05-07T07:07:06.178Z,8.33
2019-05-07T07:09:45.226Z,8.39
2019-05-07T07:12:25.944Z,8.40
2019-05-07T07:14:54.061Z,8.43
2019-05-07T07:17:22.465Z,8.49
2019-05-07T07:19:52.340Z,8.52
2019-05-07T07:22:22.287Z,8.55
2019-05-07T07:24:53.011Z,8.56
2019-05-07T07:27:22.677Z,8.43
2019-05-07T07:29:55.082Z,8.63
2019-05-07T07:32:34.169Z,8.72
2019-05-07T07:35:02.629Z,8.77
2019-05-07T07:37:43.083Z,8.77
2019-05-07T07:40:27.707Z,8.85
2019-05-07T07:42:56.094Z,8.89
2019-05-07T07:45:24.481Z,8.85
2019-05-07T07:47:53.157Z,8.80
2019-05-07T07:50:22.621Z,8.74
2019-05-07T07:52:52.967Z,8.66
2019-05-07T07:55:22.834Z,8.52
2019-05-07T07:58:02.541Z,8.44
2019-05-07T08:00:32.902Z,8.39
2019-05-07T08:03:02.999Z,8.25
2019-05-07T08:05:32.571Z,8.33
2019-05-07T08:08:02.272Z,8.32
2019-05-07T08:10:32.556Z,8.42
2019-05-07T08:13:01.992Z,8.63
2019-05-07T08:15:32.837Z,8.78
2019-05-07T08:18:02.851Z,8.77
2019-05-07T08:20:32.639Z,8.74
2019-05-07T08:23:02.884Z,8.77
2019-05-07T08:25:52.211Z,8.79
2019-05-07T08:28:22.791Z,8.80
2019-05-07T08:30:55.065Z,8.86
2019-05-07T08:33:32.266Z,9.01
2019-05-07T08:36:05.053Z,9.08
2019-05-07T08:38:35.071Z,9.28
2019-05-07T08:41:03.467Z,9.44
2019-05-07T08:43:32.282Z,9.61
2019-05-07T08:46:17.286Z,9.77
2019-05-07T08:48:47.465Z,9.91
2019-05-07T08:51:15.921Z,10.08
2019-05-07T08:53:44.312Z,10.14
2019-05-07T08:56:12.694Z,10.19
2019-05-07T08:58:42.064Z,10.30
2019-05-07T09:01:11.903Z,10.43
2019-05-07T09:03:43.346Z,10.56
2019-05-07T09:06:13.421Z,10.64
2019-05-07T09:08:43.635Z,10.75
2019-05-07T09:11:13.373Z,10.82
2019-05-07T09:13:42.152Z,10.80
2019-05-07T09:16:12.963Z,10.76
2019-05-07T09:18:42.213Z,10.76
2019-05-07T09:21:12.531Z,10.74
2019-05-07T09:23:42.426Z,10.72
2019-05-07T09:26:13.076Z,10.71
2019-05-07T09:28:58.423Z,10.70
2019-05-07T09:31:44.509Z,10.68
2019-05-07T09:34:12.892Z,10.68
2019-05-07T09:36:42.918Z,10.71
2019-05-07T09:39:12.095Z,10.72
2019-05-07T09:41:41.775Z,10.72
2019-05-07T09:44:11.957Z,10.78
2019-05-07T09:46:42.893Z,10.86
2019-05-07T09:49:12.049Z,10.94
2019-05-07T09:51:42.579Z,11.02
2019-05-07T09:54:12.592Z,11.11
2019-05-07T09:56:42.231Z,11.12
2019-05-07T09:59:12.532Z,11.18
2019-05-07T10:01:40.937Z,11.24
2019-05-07T10:04:09.331Z,11.34
2019-05-07T10:06:37.883Z,11.41
2019-05-07T10:09:06.907Z,11.45
2019-05-07T10:11:37.008Z,11.42
2019-05-07T10:14:12.671Z,11.42
2019-05-07T10:16:58.484Z,11.41
2019-05-07T10:19:27.013Z,11.48
2019-05-07T10:21:55.632Z,11.58
2019-05-07T10:24:24.013Z,11.64
2019-05-07T10:26:53.143Z,11.66
2019-05-07T10:29:22.693Z,11.63
2019-05-07T10:31:52.735Z,11.74
2019-05-07T10:34:22.851Z,11.89
2019-05-07T10:36:52.351Z,12.05
2019-05-07T10:39:22.045Z,12.14
2019-05-07T10:41:50.548Z,12.24
2019-05-07T10:44:22.790Z,12.31
2019-05-07T10:47:08.755Z,12.34
2019-05-07T10:49:38.829Z,12.33
2019-05-07T10:52:07.244Z,12.30
2019-05-07T10:54:35.628Z,12.30
2019-05-07T10:57:04.211Z,12.32
2019-05-07T10:59:32.592Z,12.32
2019-05-07T11:02:02.616Z,12.26
2019-05-07T11:04:40.172Z,12.24
2019-05-07T11:07:01.118Z,12.21
2019-05-07T11:09:29.503Z,12.19
2019-05-07T11:11:57.891Z,12.14
2019-05-07T11:14:26.270Z,12.07
2019-05-07T11:16:59.242Z,12.00
2019-05-07T11:19:27.625Z,12.03
2019-05-07T11:21:56.014Z,12.00
2019-05-07T11:24:24.389Z,12.03
2019-05-07T11:26:53.187Z,12.08
2019-05-07T11:29:22.091Z,12.16
2019-05-07T11:31:52.420Z,12.27
2019-05-07T11:34:22.050Z,12.38
2019-05-07T11:36:52.402Z,12.53
2019-05-07T11:39:22.598Z,12.62
2019-05-07T11:41:52.405Z,12.74
2019-05-07T11:44:22.977Z,12.84
2019-05-07T11:47:12.347Z,12.98
2019-05-07T11:49:58.448Z,13.04
2019-05-07T11:52:32.334Z,13.18
2019-05-07T11:55:00.208Z,13.25
2019-05-07T11:57:28.569Z,13.27
2019-05-07T11:59:56.965Z,13.12
2019-05-07T12:02:25.352Z,13.05
2019-05-07T12:04:53.735Z,13.02
2019-05-07T12:07:22.447Z,12.93
2019-05-07T12:09:52.616Z,12.78
2019-05-07T12:12:22.186Z,12.77
2019-05-07T12:14:51.848Z,12.74
2019-05-07T12:17:22.262Z,12.86
2019-05-07T12:19:52.564Z,13.03
2019-05-07T12:22:31.761Z,13.02
2019-05-07T12:25:02.499Z,12.97
2019-05-07T12:27:32.206Z,12.94
2019-05-07T12:30:00.402Z,12.85
2019-05-07T12:32:33.186Z,12.95
2019-05-07T12:35:02.444Z,13.13
2019-05-07T12:37:32.007Z,13.34
2019-05-07T12:40:01.848Z,13.36
2019-05-07T12:42:30.348Z,13.51
2019-05-07T12:44:58.735Z,13.58
2019-05-07T12:47:27.126Z,13.66
2019-05-07T12:49:55.510Z,13.70
2019-05-07T12:52:25.539Z,13.81
2019-05-07T12:54:58.226Z,13.88
2019-05-07T12:57:26.683Z,13.93
2019-05-07T12:59:56.706Z,14.00
2019-05-07T13:02:38.102Z,14.00
2019-05-07T13:04:59.589Z,14.01
2019-05-07T13:07:29.614Z,14.01
2019-05-07T13:09:57.995Z,13.99
2019-05-07T13:12:26.392Z,13.98
2019-05-07T13:14:54.815Z,13.98
2019-05-07T13:17:23.217Z,13.95
2019-05-07T13:19:52.461Z,13.85
2019-05-07T13:22:21.967Z,13.84
2019-05-07T13:24:50.392Z,13.77
2019-05-07T13:27:18.777Z,13.86
2019-05-07T13:29:47.815Z,14.00
2019-05-07T13:32:16.527Z,14.04
2019-05-07T13:34:45.752Z,14.12
2019-05-07T13:37:16.010Z,14.21
2019-05-07T13:39:58.562Z,14.29
2019-05-07T13:42:31.988Z,14.28
2019-05-07T13:45:05.101Z,14.24
2019-05-07T13:47:35.270Z,14.29
2019-05-07T13:50:05.082Z,14.28
2019-05-07T13:52:33.803Z,14.25
2019-05-07T13:55:02.266Z,14.23
2019-05-07T13:57:32.201Z,14.07
2019-05-07T14:00:02.369Z,14.03
2019-05-07T14:02:32.201Z,14.07
2019-05-07T14:05:01.537Z,14.08
2019-05-07T14:07:32.240Z,14.13
2019-05-07T14:10:02.088Z,14.14
2019-05-07T14:12:33.504Z,14.04
2019-05-07T14:15:02.168Z,14.08
2019-05-07T14:17:30.690Z,14.11
2019-05-07T14:19:59.159Z,14.17
2019-05-07T14:22:27.543Z,14.16
2019-05-07T14:24:55.924Z,14.07
2019-05-07T14:27:24.311Z,14.10
2019-05-07T14:29:52.697Z,14.16
2019-05-07T14:32:22.898Z,14.18
2019-05-07T14:35:07.940Z,14.07
2019-05-07T14:37:41.840Z,14.01
2019-05-07T14:40:12.765Z,14.05
2019-05-07T14:42:45.600Z,14.01
2019-05-07T14:45:14.635Z,14.02
2019-05-07T14:47:44.740Z,14.04
2019-05-07T14:50:13.502Z,14.05
2019-05-07T14:52:43.266Z,14.00
2019-05-07T14:55:12.800Z,13.91
2019-05-07T14:57:42.121Z,14.00
2019-05-07T15:00:12.207Z,13.98
2019-05-07T15:02:42.176Z,14.09
2019-05-07T15:05:11.982Z,14.12
2019-05-07T15:07:41.804Z,14.23
2019-05-07T15:10:11.047Z,14.23
2019-05-07T15:12:39.513Z,14.29
2019-05-07T15:15:09.131Z,14.16
2019-05-07T15:17:57.344Z,14.19
2019-05-07T15:20:25.801Z,14.26
2019-05-07T15:23:07.773Z,14.31
2019-05-07T15:25:36.322Z,14.37
2019-05-07T15:28:04.751Z,14.40
2019-05-07T15:30:34.848Z,14.42
2019-05-07T15:33:03.222Z,14.41
2019-05-07T15:35:31.994Z,14.35
2019-05-07T15:38:02.498Z,14.27
2019-05-07T15:40:32.817Z,14.22
2019-05-07T15:43:02.121Z,14.19
2019-05-07T15:45:30.658Z,14.20
2019-05-07T15:47:59.143Z,14.18
2019-05-07T15:50:29.161Z,14.15
2019-05-07T15:52:59.250Z,14.13
2019-05-07T15:55:27.629Z,14.11
2019-05-07T15:57:56.659Z,14.14
2019-05-07T16:00:29.701Z,14.12
2019-05-07T16:03:05.487Z,14.03
2019-05-07T16:05:34.058Z,13.97
2019-05-07T16:08:04.135Z,13.98
2019-05-07T16:10:32.642Z,13.97
2019-05-07T16:13:01.250Z,13.95
2019-05-07T16:15:31.812Z,13.82
2019-05-07T16:18:02.780Z,13.79
2019-05-07T16:20:32.605Z,13.67
2019-05-07T16:23:14.017Z,13.59
2019-05-07T16:25:32.912Z,13.61
2019-05-07T16:28:02.098Z,13.63
2019-05-07T16:30:32.426Z,13.67
2019-05-07T16:33:02.154Z,13.72
2019-05-07T16:35:32.098Z,13.70
2019-05-07T16:38:00.606Z,13.69
2019-05-07T16:40:28.993Z,13.69
2019-05-07T16:43:16.722Z,13.66
2019-05-07T16:45:45.144Z,13.55
2019-05-07T16:48:13.534Z,13.43
2019-05-07T16:50:41.929Z,13.41
2019-05-07T16:53:12.175Z,13.35
2019-05-07T16:55:40.429Z,13.25
2019-05-07T16:58:20.320Z,13.19
2019-05-07T17:00:48.319Z,13.18
2019-05-07T17:03:21.054Z,13.12
2019-05-07T17:05:49.441Z,13.16
2019-05-07T17:08:19.463Z,13.21
2019-05-07T17:10:47.845Z,13.29
2019-05-07T17:13:16.234Z,13.35
2019-05-07T17:16:03.395Z,13.32
2019-05-07T17:18:32.632Z,13.00
2019-05-07T17:21:02.039Z,13.38
2019-05-07T17:23:43.690Z,13.42
2019-05-07T17:26:00.718Z,13.33
2019-05-07T17:28:29.109Z,13.25
2019-05-07T17:30:57.494Z,13.15
2019-05-07T17:33:25.881Z,13.07
2019-05-07T17:35:54.445Z,12.95
2019-05-07T17:38:23.246Z,12.79
2019-05-07T17:40:52.233Z,12.70
2019-05-07T17:43:21.994Z,12.67
2019-05-07T17:45:52.286Z,12.59
2019-05-07T17:48:23.045Z,12.40
2019-05-07T17:51:01.272Z,12.32
2019-05-07T17:53:31.882Z,12.31
2019-05-07T17:56:02.000Z,12.34
2019-05-07T17:58:29.904Z,12.30
2019-05-07T18:01:01.787Z,12.28
2019-05-07T18:03:34.537Z,12.20
2019-05-07T18:06:03.664Z,12.22
2019-05-07T18:08:32.751Z,12.17
2019-05-07T18:11:02.367Z,12.13
2019-05-07T18:13:32.338Z,12.08
2019-05-07T18:16:02.979Z,12.05
2019-05-07T18:18:32.820Z,12.01
2019-05-07T18:21:12.645Z,11.95
2019-05-07T18:23:46.923Z,11.93
2019-05-07T18:26:27.146Z,11.91
2019-05-07T18:28:45.432Z,11.83
2019-05-07T18:31:30.096Z,11.78
2019-05-07T18:33:59.650Z,11.40
2019-05-07T18:36:28.034Z,11.73
2019-05-07T18:38:56.416Z,11.72
2019-05-07T18:41:24.879Z,11.72
2019-05-07T18:43:54.698Z,11.68
2019-05-07T18:46:23.143Z,11.58
2019-05-07T18:48:51.924Z,11.48
2019-05-07T18:51:25.956Z,11.35
2019-05-07T18:53:54.350Z,11.27
2019-05-07T18:56:22.748Z,11.21
2019-05-07T18:58:52.087Z,11.14
2019-05-07T19:01:22.569Z,11.08
2019-05-07T19:03:52.580Z,11.05
2019-05-07T19:06:22.279Z,11.00
2019-05-07T19:08:52.537Z,10.93
2019-05-07T19:11:22.861Z,10.90
2019-05-07T19:13:52.505Z,10.86
2019-05-07T19:16:23.004Z,10.82
2019-05-07T19:18:51.590Z,10.78
2019-05-07T19:21:22.233Z,10.71
2019-05-07T19:23:50.331Z,10.61
2019-05-07T19:26:18.792Z,10.52
2019-05-07T19:28:47.185Z,10.45
2019-05-07T19:31:15.589Z,10.34
2019-05-07T19:33:45.867Z,10.26
2019-05-07T19:36:14.260Z,9.78
2019-05-07T19:38:42.653Z,10.10
2019-05-07T19:41:12.338Z,10.05
2019-05-07T19:43:41.913Z,9.98
2019-05-07T19:46:12.307Z,9.93
2019-05-07T19:48:40.554Z,9.94
2019-05-07T19:51:08.944Z,9.92
2019-05-07T19:53:39.041Z,9.88
2019-05-07T19:56:18.563Z,9.40
2019-05-07T19:58:47.013Z,9.74
2019-05-07T20:01:17.106Z,9.65
2019-05-07T20:03:48.325Z,9.58
2019-05-07T20:06:16.709Z,8.87
2019-05-07T20:08:45.111Z,9.47
2019-05-07T20:11:15.154Z,9.40
2019-05-07T20:13:43.867Z,9.35
2019-05-07T20:16:19.386Z,9.24
2019-05-07T20:18:48.053Z,9.20
2019-05-07T20:21:16.437Z,9.21
2019-05-07T20:23:44.822Z,9.20
2019-05-07T20:26:13.284Z,9.14
2019-05-07T20:28:41.948Z,9.07
2019-05-07T20:31:12.285Z,8.99
2019-05-07T20:33:42.276Z,8.94
2019-05-07T20:36:10.944Z,8.89
2019-05-07T20:38:39.345Z,8.81
2019-05-07T20:41:07.805Z,8.75
2019-05-07T20:43:36.205Z,8.70
2019-05-07T20:46:04.732Z,8.67
2019-05-07T20:48:33.137Z,8.62
2019-05-07T20:51:01.525Z,8.49
2019-05-07T20:53:48.005Z,8.48
2019-05-07T20:56:18.079Z,8.40
2019-05-07T20:58:46.495Z,8.36
2019-05-07T21:01:14.913Z,8.31
2019-05-07T21:03:43.275Z,8.23
2019-05-07T21:06:11.780Z,8.20
2019-05-07T21:08:40.181Z,8.16
2019-05-07T21:11:08.621Z,8.13
2019-05-07T21:13:37.068Z,8.07
2019-05-07T21:16:06.216Z,8.02
2019-05-07T21:18:34.618Z,7.97
2019-05-07T21:21:03.036Z,7.90
2019-05-07T21:23:32.563Z,7.86
2019-05-07T21:26:02.181Z,7.82
2019-05-07T21:28:32.357Z,7.75
2019-05-07T21:31:02.758Z,7.72
2019-05-07T21:33:32.243Z,7.68
2019-05-07T21:36:02.721Z,7.64
2019-05-07T21:38:32.651Z,7.56
2019-05-07T21:41:00.885Z,7.51
2019-05-07T21:43:29.264Z,7.43
2019-05-07T21:45:57.730Z,7.37
2019-05-07T21:48:26.176Z,7.33
2019-05-07T21:50:55.096Z,7.30
2019-05-07T21:53:28.068Z,7.26
2019-05-07T21:56:13.930Z,7.23
2019-05-07T21:58:46.529Z,7.20
2019-05-07T22:01:16.637Z,7.16
2019-05-07T22:03:47.047Z,7.17
2019-05-07T22:06:15.448Z,7.16
2019-05-07T22:08:43.872Z,7.11
2019-05-07T22:11:12.555Z,7.03
2019-05-07T22:13:43.267Z,6.97
2019-05-07T22:16:13.060Z,6.91
2019-05-07T22:18:42.666Z,6.83
2019-05-07T22:21:12.386Z,6.78
2019-05-07T22:23:42.842Z,6.77
2019-05-07T22:26:20.001Z,6.74
2019-05-07T22:28:42.038Z,6.70
2019-05-07T22:31:29.797Z,6.67
2019-05-07T22:34:02.019Z,6.64
2019-05-07T22:36:29.929Z,6.60
2019-05-07T22:38:58.325Z,6.57
2019-05-07T22:41:26.724Z,6.55
2019-05-07T22:43:55.164Z,6.44
2019-05-07T22:46:23.572Z,6.39
2019-05-07T22:48:51.955Z,6.38
2019-05-07T22:51:22.698Z,6.33
2019-05-07T22:53:50.566Z,6.31
2019-05-07T22:56:31.878Z,6.24
2019-05-07T22:58:50.805Z,6.21
2019-05-07T23:01:19.463Z,6.16
2019-05-07T23:03:47.891Z,6.13
2019-05-07T23:06:16.323Z,6.07
2019-05-07T23:08:44.724Z,6.05
2019-05-07T23:11:13.227Z,6.04
2019-05-07T23:13:42.661Z,5.94
2019-05-07T23:16:12.555Z,5.95
2019-05-07T23:18:42.931Z,5.92
2019-05-07T23:21:11.346Z,5.91
2019-05-07T23:23:42.038Z,5.89
2019-05-07T23:26:12.254Z,5.88
2019-05-07T23:28:41.839Z,5.84
2019-05-07T23:31:12.135Z,5.82
2019-05-07T23:33:40.244Z,5.76
2019-05-07T23:36:08.668Z,5.71
2019-05-07T23:38:37.094Z,5.68
2019-05-07T23:41:12.880Z,5.62
2019-05-07T23:43:42.386Z,5.59
2019-05-07T23:46:12.786Z,5.53
2019-05-07T23:48:42.743Z,5.49
2019-05-07T23:51:12.593Z,5.49
2019-05-07T23:53:44.199Z,5.49
2019-05-07T23:56:13.128Z,5.49
2019-05-07T23:58:42.010Z,5.47
